Fure West — OZ2100 — position and weather

sailwx.info

Track history (hours):
 
Tides and Currents Weather Stations Pressure Air Temp Water Temp Dewpoint Dewpoint Depression Visibility Wind Speed Wind Dir Waves Ship Positions

Fure West

Last reported at 2016-Aug-25 17:33 UTC. Time now 2016-Aug-25 18:29 UTC.
Position N 54°55' E 018°40'.

Length 144 m; draft 6.5 m.

MMSI: 231775000.

Date/timePositionNaut miles runAvg speedWind from/ knotsBaromVisibWave heightAir tempDewpointWater temp
2016-Aug-25 17:33N 54°55' E 018°40'1211.7
2016-Aug-25 16:33N 55°00' E 018°22'1111.3
2016-Aug-25 15:33N 55°02' E 018°02'1111.3
2016-Aug-25 14:33N 55°05' E 017°43'3911.3
2016-Aug-25 11:08N 55°13' E 016°36'711.5
2016-Aug-25 10:33N 55°14' E 016°25'1211.9
2016-Aug-25 09:33N 55°17' E 016°05'1211.9
2016-Aug-25 08:32N 55°19' E 015°44'1211.8
2016-Aug-25 07:33N 55°21' E 015°24'1211.6
2016-Aug-25 06:33N 55°23' E 015°04'2110.5
2016-Aug-25 04:33N 55°16' E 014°29'1110.6
2016-Aug-25 03:33N 55°10' E 014°13'1211.8
2016-Aug-25 02:34N 55°11' E 013°52'1211.5
2016-Aug-25 01:33N 55°12' E 013°32'1211.8
2016-Aug-25 00:33N 55°14' E 013°12'1211.9
2016-Aug-24 23:33N 55°15' E 012°51'10 9.6
2016-Aug-24 22:33N 55°22' E 012°39'1211.5
2016-Aug-24 21:33N 55°32' E 012°46'10 9.8
2016-Aug-24 20:33N 55°41' E 012°55'1212.3
2016-Aug-24 19:33N 55°52' E 012°45'1211.8
2016-Aug-24 18:33N 56°03' E 012°38'1212.0
2016-Aug-24 17:33N 56°11' E 012°22'1111.4
2016-Aug-24 16:33N 56°22' E 012°23'1111.5
2016-Aug-24 15:33N 56°34' E 012°23'1211.8
2016-Aug-24 14:33N 56°45' E 012°23'1211.8
2016-Aug-24 13:33N 56°55' E 012°13'1211.8
2016-Aug-24 12:30N 57°06' E 012°01'1111.9
2016-Aug-24 11:32N 57°16' E 011°50'1111.5
2016-Aug-24 10:33N 57°26' E 011°40'9 8.8
2016-Aug-24 09:33N 57°35' E 011°41'0 0.1
2016-Aug-24 08:33N 57°35' E 011°41'0 0.0
2016-Aug-24 07:33N 57°35' E 011°41'0 0.0
2016-Aug-24 06:33N 57°35' E 011°41'13 6.3
2016-Aug-24 04:33N 57°39' E 011°18'1111.1
2016-Aug-24 03:34N 57°45' E 011°01'1210.6
2016-Aug-24 02:27N 57°50' E 010°41'13710.4
2016-Aug-23 13:14N 56°21' E 007°28'811.4
2016-Aug-23 12:32N 56°14' E 007°21'3511.4
2016-Aug-23 09:26N 55°43' E 006°50'10 8.3
2016-Aug-23 08:17N 55°35' E 006°41'811.2
2016-Aug-23 07:33N 55°28' E 006°34'7911.0
2016-Aug-23 00:23N 54°20' E 005°23'910.8
2016-Aug-22 23:33N 54°13' E 005°15'1110.8
2016-Aug-22 22:33N 54°03' E 005°07'1111.0
2016-Aug-22 21:33N 53°53' E 005°00'1211.2
2016-Aug-22 20:29N 53°41' E 004°53'2211.4
2016-Aug-22 18:33N 53°21' E 004°39'1312.8
2016-Aug-22 17:33N 53°09' E 004°30'1212.2
2016-Aug-22 16:33N 52°59' E 004°20'1211.6
2016-Aug-22 15:33N 52°48' E 004°12'1110.5
2016-Aug-22 14:33N 52°39' E 004°06'8 8.5
2016-Aug-22 13:34N 52°32' E 004°15'0 0.2
2016-Aug-22 12:32N 52°32' E 004°16'0 0.0
2016-Aug-22 11:32N 52°32' E 004°16'0 0.1
2016-Aug-22 10:33N 52°32' E 004°16'9 8.7
2016-Aug-22 09:34N 52°28' E 004°28'5 5.0
2016-Aug-22 08:33N 52°28' E 004°37'2 2.0
2016-Aug-22 07:34N 52°28' E 004°40'5 4.9
2016-Aug-22 06:31N 52°25' E 004°46'0 0.0
2016-Aug-22 05:31N 52°25' E 004°46'0 0.0
2016-Aug-22 04:31N 52°25' E 004°46'0 0.0
2016-Aug-22 03:31N 52°25' E 004°46'0 0.0
2016-Aug-22 02:31N 52°25' E 004°46'0 0.0
2016-Aug-22 01:28N 52°25' E 004°46'0 0.0
2016-Aug-22 00:31N 52°25' E 004°46'0 0.0
2016-Aug-21 23:31N 52°25' E 004°46'0 0.0
2016-Aug-21 22:31N 52°25' E 004°46'0 0.0
2016-Aug-21 21:28N 52°25' E 004°46'0 0.0
2016-Aug-21 20:31N 52°25' E 004°46'0 0.0
2016-Aug-21 19:31N 52°25' E 004°46'0 0.0
2016-Aug-21 18:31N 52°25' E 004°46'0 0.0
2016-Aug-21 17:31N 52°25' E 004°46'0 0.0
2016-Aug-21 16:31N 52°25' E 004°46'0 0.0
2016-Aug-21 15:31N 52°25' E 004°46'0 0.0
2016-Aug-21 14:31N 52°25' E 004°46'0 0.0
2016-Aug-21 13:31N 52°25' E 004°46'0 0.0
2016-Aug-21 12:31N 52°25' E 004°46'0 0.0
2016-Aug-21 11:31N 52°25' E 004°46'0 0.0
2016-Aug-21 10:25N 52°25' E 004°46'0 0.0
2016-Aug-21 09:31N 52°25' E 004°46'0 0.0
2016-Aug-21 08:28N 52°25' E 004°46'0 0.0
2016-Aug-21 07:28N 52°25' E 004°46'0 0.0
2016-Aug-21 06:31N 52°25' E 004°46'0 0.1
2016-Aug-21 05:33N 52°25' E 004°46'6 5.7
2016-Aug-21 04:34N 52°28' E 004°39'2 1.9
2016-Aug-21 03:33N 52°28' E 004°36'2 1.9
2016-Aug-21 02:34N 52°28' E 004°33'9 8.7
2016-Aug-21 01:33N 52°28' E 004°18'9 9.3
2016-Aug-21 00:33N 52°28' E 004°03'1110.6
2016-Aug-20 23:32N 52°26' E 003°46'28010.0
2016-Aug-19 19:32N 56°33' E 007°29'1211.9
2016-Aug-19 18:31N 56°44' E 007°42'14211.8
2016-Aug-19 06:28N 58°14' E 011°07'1011.0
2016-Aug-19 05:33N 58°20' E 011°22'2 0.1
2016-Aug-18 06:33N 58°21' E 011°25'3 2.9
2016-Aug-18 05:32N 58°19' E 011°21'0 0.0
2016-Aug-18 04:32N 58°19' E 011°21'0 0.0
2016-Aug-18 03:32N 58°19' E 011°21'0 0.0
2016-Aug-18 02:32N 58°19' E 011°21'0 0.0
2016-Aug-18 01:32N 58°19' E 011°21'0 0.0
2016-Aug-18 00:32N 58°19' E 011°21'0 0.0
2016-Aug-17 23:32N 58°19' E 011°21'0 0.0
2016-Aug-17 22:32N 58°19' E 011°21'0 0.0
2016-Aug-17 21:32N 58°19' E 011°21'0 0.0
2016-Aug-17 20:32N 58°19' E 011°21'0 0.0
2016-Aug-17 19:32N 58°19' E 011°21'0 0.0
2016-Aug-17 18:32N 58°19' E 011°21'0 0.1
2016-Aug-17 17:26N 58°19' E 011°21'0 0.1
2016-Aug-17 16:32N 58°19' E 011°21'0 0.0
2016-Aug-17 15:32N 58°19' E 011°21'0 0.0
2016-Aug-17 14:32N 58°19' E 011°21'0 0.0
2016-Aug-17 13:32N 58°19' E 011°21'0 0.0
2016-Aug-17 12:32N 58°19' E 011°21'0 0.0
2016-Aug-17 11:32N 58°19' E 011°21'0 0.0
2016-Aug-17 10:32N 58°19' E 011°21'0 0.1
2016-Aug-17 09:32N 58°19' E 011°21'0 0.0
2016-Aug-17 08:32N 58°19' E 011°21'0 0.0
2016-Aug-17 07:32N 58°19' E 011°21'0 0.0
2016-Aug-17 06:32N 58°19' E 011°21'0 0.0
2016-Aug-17 05:32N 58°19' E 011°21'0 0.0
2016-Aug-17 04:26N 58°19' E 011°21'0 0.0
2016-Aug-17 03:32N 58°19' E 011°21'0 0.0
2016-Aug-17 02:32N 58°19' E 011°21'0 0.0
2016-Aug-17 01:32N 58°19' E 011°21'0 0.0
2016-Aug-17 00:32N 58°19' E 011°21'0 0.0
2016-Aug-16 23:32N 58°19' E 011°21'0 0.0
2016-Aug-16 22:32N 58°19' E 011°21'0 0.0
2016-Aug-16 21:32N 58°19' E 011°21'0 0.0
2016-Aug-16 20:32N 58°19' E 011°21'0 0.0
2016-Aug-16 19:32N 58°19' E 011°21'0 0.0
2016-Aug-16 18:32N 58°19' E 011°21'0 0.0
2016-Aug-16 17:32N 58°19' E 011°21'0 0.0
2016-Aug-16 16:26N 58°19' E 011°21'0 0.0
2016-Aug-16 15:32N 58°19' E 011°21'0 0.0
2016-Aug-16 14:32N 58°19' E 011°21'0 0.0
2016-Aug-16 13:32N 58°19' E 011°21'0 0.0
2016-Aug-16 12:32N 58°19' E 011°21'0 0.0
2016-Aug-16 11:32N 58°19' E 011°21'0 0.0
2016-Aug-16 10:32N 58°20' E 011°21'0 0.1
2016-Aug-16 09:32N 58°19' E 011°21'0 0.0
2016-Aug-16 08:32N 58°19' E 011°21'0 0.0
2016-Aug-16 07:32N 58°19' E 011°21'0 0.0
2016-Aug-16 04:32N 58°19' E 011°21'0 0.0
2016-Aug-16 03:32N 58°19' E 011°21'0 0.0
2016-Aug-16 02:32N 58°19' E 011°21'0 0.0
2016-Aug-16 01:32N 58°19' E 011°21'0 0.0
2016-Aug-16 00:32N 58°19' E 011°21'0 0.0
2016-Aug-15 23:32N 58°19' E 011°21'0 0.0
2016-Aug-15 22:32N 58°19' E 011°21'0 0.0
2016-Aug-15 21:29N 58°19' E 011°21'0 0.0
2016-Aug-15 20:32N 58°19' E 011°21'0 0.0
2016-Aug-15 19:26N 58°19' E 011°21'0 0.0
2016-Aug-15 18:32N 58°19' E 011°21'  
Track history (hours):
 
Tides and Currents Weather Stations Pressure Air Temp Water Temp Dewpoint Dewpoint Depression Visibility Wind Speed Wind Dir Waves Ship Positions

Fure West

Last reported at 2016-Aug-25 17:33 UTC. Time now 2016-Aug-25 18:29 UTC.
Position N 54°55' E 018°40'.

Length 144 m; draft 6.5 m.

MMSI: 231775000.

Date/timePositionNaut miles runAvg speedWind from/ knotsBaromVisibWave heightAir tempDewpointWater temp
2016-Aug-25 17:33N 54°55' E 018°40'1211.7
2016-Aug-25 16:33N 55°00' E 018°22'1111.3
2016-Aug-25 15:33N 55°02' E 018°02'1111.3
2016-Aug-25 14:33N 55°05' E 017°43'3911.3
2016-Aug-25 11:08N 55°13' E 016°36'711.5
2016-Aug-25 10:33N 55°14' E 016°25'1211.9
2016-Aug-25 09:33N 55°17' E 016°05'1211.9
2016-Aug-25 08:32N 55°19' E 015°44'1211.8
2016-Aug-25 07:33N 55°21' E 015°24'1211.6
2016-Aug-25 06:33N 55°23' E 015°04'2110.5
2016-Aug-25 04:33N 55°16' E 014°29'1110.6
2016-Aug-25 03:33N 55°10' E 014°13'1211.8
2016-Aug-25 02:34N 55°11' E 013°52'1211.5
2016-Aug-25 01:33N 55°12' E 013°32'1211.8
2016-Aug-25 00:33N 55°14' E 013°12'1211.9
2016-Aug-24 23:33N 55°15' E 012°51'10 9.6
2016-Aug-24 22:33N 55°22' E 012°39'1211.5
2016-Aug-24 21:33N 55°32' E 012°46'10 9.8
2016-Aug-24 20:33N 55°41' E 012°55'1212.3
2016-Aug-24 19:33N 55°52' E 012°45'1211.8
2016-Aug-24 18:33N 56°03' E 012°38'1212.0
2016-Aug-24 17:33N 56°11' E 012°22'1111.4
2016-Aug-24 16:33N 56°22' E 012°23'1111.5
2016-Aug-24 15:33N 56°34' E 012°23'1211.8
2016-Aug-24 14:33N 56°45' E 012°23'1211.8
2016-Aug-24 13:33N 56°55' E 012°13'1211.8
2016-Aug-24 12:30N 57°06' E 012°01'1111.9
2016-Aug-24 11:32N 57°16' E 011°50'1111.5
2016-Aug-24 10:33N 57°26' E 011°40'9 8.8
2016-Aug-24 09:33N 57°35' E 011°41'0 0.1
2016-Aug-24 08:33N 57°35' E 011°41'0 0.0
2016-Aug-24 07:33N 57°35' E 011°41'0 0.0
2016-Aug-24 06:33N 57°35' E 011°41'13 6.3
2016-Aug-24 04:33N 57°39' E 011°18'1111.1
2016-Aug-24 03:34N 57°45' E 011°01'1210.6
2016-Aug-24 02:27N 57°50' E 010°41'13710.4
2016-Aug-23 13:14N 56°21' E 007°28'811.4
2016-Aug-23 12:32N 56°14' E 007°21'3511.4
2016-Aug-23 09:26N 55°43' E 006°50'10 8.3
2016-Aug-23 08:17N 55°35' E 006°41'811.2
2016-Aug-23 07:33N 55°28' E 006°34'7911.0
2016-Aug-23 00:23N 54°20' E 005°23'910.8
2016-Aug-22 23:33N 54°13' E 005°15'1110.8
2016-Aug-22 22:33N 54°03' E 005°07'1111.0
2016-Aug-22 21:33N 53°53' E 005°00'1211.2
2016-Aug-22 20:29N 53°41' E 004°53'2211.4
2016-Aug-22 18:33N 53°21' E 004°39'1312.8
2016-Aug-22 17:33N 53°09' E 004°30'1212.2
2016-Aug-22 16:33N 52°59' E 004°20'1211.6
2016-Aug-22 15:33N 52°48' E 004°12'1110.5
2016-Aug-22 14:33N 52°39' E 004°06'8 8.5
2016-Aug-22 13:34N 52°32' E 004°15'0 0.2
2016-Aug-22 12:32N 52°32' E 004°16'0 0.0
2016-Aug-22 11:32N 52°32' E 004°16'0 0.1
2016-Aug-22 10:33N 52°32' E 004°16'9 8.7
2016-Aug-22 09:34N 52°28' E 004°28'5 5.0
2016-Aug-22 08:33N 52°28' E 004°37'2 2.0
2016-Aug-22 07:34N 52°28' E 004°40'5 4.9
2016-Aug-22 06:31N 52°25' E 004°46'0 0.0
2016-Aug-22 05:31N 52°25' E 004°46'0 0.0
2016-Aug-22 04:31N 52°25' E 004°46'0 0.0
2016-Aug-22 03:31N 52°25' E 004°46'0 0.0
2016-Aug-22 02:31N 52°25' E 004°46'0 0.0
2016-Aug-22 01:28N 52°25' E 004°46'0 0.0
2016-Aug-22 00:31N 52°25' E 004°46'0 0.0
2016-Aug-21 23:31N 52°25' E 004°46'0 0.0
2016-Aug-21 22:31N 52°25' E 004°46'0 0.0
2016-Aug-21 21:28N 52°25' E 004°46'0 0.0
2016-Aug-21 20:31N 52°25' E 004°46'0 0.0
2016-Aug-21 19:31N 52°25' E 004°46'0 0.0
2016-Aug-21 18:31N 52°25' E 004°46'0 0.0
2016-Aug-21 17:31N 52°25' E 004°46'0 0.0
2016-Aug-21 16:31N 52°25' E 004°46'0 0.0
2016-Aug-21 15:31N 52°25' E 004°46'0 0.0
2016-Aug-21 14:31N 52°25' E 004°46'0 0.0
2016-Aug-21 13:31N 52°25' E 004°46'0 0.0
2016-Aug-21 12:31N 52°25' E 004°46'0 0.0
2016-Aug-21 11:31N 52°25' E 004°46'0 0.0
2016-Aug-21 10:25N 52°25' E 004°46'0 0.0
2016-Aug-21 09:31N 52°25' E 004°46'0 0.0
2016-Aug-21 08:28N 52°25' E 004°46'0 0.0
2016-Aug-21 07:28N 52°25' E 004°46'0 0.0
2016-Aug-21 06:31N 52°25' E 004°46'0 0.1
2016-Aug-21 05:33N 52°25' E 004°46'6 5.7
2016-Aug-21 04:34N 52°28' E 004°39'2 1.9
2016-Aug-21 03:33N 52°28' E 004°36'2 1.9
2016-Aug-21 02:34N 52°28' E 004°33'9 8.7
2016-Aug-21 01:33N 52°28' E 004°18'9 9.3
2016-Aug-21 00:33N 52°28' E 004°03'1110.6
2016-Aug-20 23:32N 52°26' E 003°46'28010.0
2016-Aug-19 19:32N 56°33' E 007°29'1211.9
2016-Aug-19 18:31N 56°44' E 007°42'14211.8
2016-Aug-19 06:28N 58°14' E 011°07'1011.0
2016-Aug-19 05:33N 58°20' E 011°22'2 0.1
2016-Aug-18 06:33N 58°21' E 011°25'3 2.9
2016-Aug-18 05:32N 58°19' E 011°21'0 0.0
2016-Aug-18 04:32N 58°19' E 011°21'0 0.0
2016-Aug-18 03:32N 58°19' E 011°21'0 0.0
2016-Aug-18 02:32N 58°19' E 011°21'0 0.0
2016-Aug-18 01:32N 58°19' E 011°21'0 0.0
2016-Aug-18 00:32N 58°19' E 011°21'0 0.0
2016-Aug-17 23:32N 58°19' E 011°21'0 0.0
2016-Aug-17 22:32N 58°19' E 011°21'0 0.0
2016-Aug-17 21:32N 58°19' E 011°21'0 0.0
2016-Aug-17 20:32N 58°19' E 011°21'0 0.0
2016-Aug-17 19:32N 58°19' E 011°21'0 0.0
2016-Aug-17 18:32N 58°19' E 011°21'0 0.1
2016-Aug-17 17:26N 58°19' E 011°21'0 0.1
2016-Aug-17 16:32N 58°19' E 011°21'0 0.0
2016-Aug-17 15:32N 58°19' E 011°21'0 0.0
2016-Aug-17 14:32N 58°19' E 011°21'0 0.0
2016-Aug-17 13:32N 58°19' E 011°21'0 0.0
2016-Aug-17 12:32N 58°19' E 011°21'0 0.0
2016-Aug-17 11:32N 58°19' E 011°21'0 0.0
2016-Aug-17 10:32N 58°19' E 011°21'0 0.1
2016-Aug-17 09:32N 58°19' E 011°21'0 0.0
2016-Aug-17 08:32N 58°19' E 011°21'0 0.0
2016-Aug-17 07:32N 58°19' E 011°21'0 0.0
2016-Aug-17 06:32N 58°19' E 011°21'0 0.0
2016-Aug-17 05:32N 58°19' E 011°21'0 0.0
2016-Aug-17 04:26N 58°19' E 011°21'0 0.0
2016-Aug-17 03:32N 58°19' E 011°21'0 0.0
2016-Aug-17 02:32N 58°19' E 011°21'0 0.0
2016-Aug-17 01:32N 58°19' E 011°21'0 0.0
2016-Aug-17 00:32N 58°19' E 011°21'0 0.0
2016-Aug-16 23:32N 58°19' E 011°21'0 0.0
2016-Aug-16 22:32N 58°19' E 011°21'0 0.0
2016-Aug-16 21:32N 58°19' E 011°21'0 0.0
2016-Aug-16 20:32N 58°19' E 011°21'0 0.0
2016-Aug-16 19:32N 58°19' E 011°21'0 0.0
2016-Aug-16 18:32N 58°19' E 011°21'0 0.0
2016-Aug-16 17:32N 58°19' E 011°21'0 0.0
2016-Aug-16 16:26N 58°19' E 011°21'0 0.0
2016-Aug-16 15:32N 58°19' E 011°21'0 0.0
2016-Aug-16 14:32N 58°19' E 011°21'0 0.0
2016-Aug-16 13:32N 58°19' E 011°21'0 0.0
2016-Aug-16 12:32N 58°19' E 011°21'0 0.0
2016-Aug-16 11:32N 58°19' E 011°21'0 0.0
2016-Aug-16 10:32N 58°20' E 011°21'0 0.1
2016-Aug-16 09:32N 58°19' E 011°21'0 0.0
2016-Aug-16 08:32N 58°19' E 011°21'0 0.0
2016-Aug-16 07:32N 58°19' E 011°21'0 0.0
2016-Aug-16 04:32N 58°19' E 011°21'0 0.0
2016-Aug-16 03:32N 58°19' E 011°21'0 0.0
2016-Aug-16 02:32N 58°19' E 011°21'0 0.0
2016-Aug-16 01:32N 58°19' E 011°21'0 0.0
2016-Aug-16 00:32N 58°19' E 011°21'0 0.0
2016-Aug-15 23:32N 58°19' E 011°21'0 0.0
2016-Aug-15 22:32N 58°19' E 011°21'0 0.0
2016-Aug-15 21:29N 58°19' E 011°21'0 0.0
2016-Aug-15 20:32N 58°19' E 011°21'0 0.0
2016-Aug-15 19:26N 58°19' E 011°21'0 0.0
2016-Aug-15 18:32N 58°19' E 011°21'  

Dump ship's entire track history